SIA525 WSSS-VNKT
Flight info
| Callsign | SIA525 |
|---|---|
| Flight time | 4h 19m |
| Altitude | 38000 |
| Route | VMR9B VMR B469 VPK M751 VKB M626 DALER/N0487F400 M626 BGO L507 CEA R325 DUMKA R581 MONDA G463 ROMEO ROMEO3R |
| Aircraft | B789/H-SDE1E2E3FGHIJ2J3J4J5M1RWXY/LB1D1 |
Departure
| Time | 2026-05-08 02:41 |
|---|---|
| Airport | Singapore Changi Airport (WSSS) |
Arrival
| Time | 2026-05-08 07:00 |
|---|---|
| Airport | Tribhuvan International Airport (VNKT) |
| Time | Latitude | Longitude | Altitude | Speed | Heading |
|---|---|---|---|---|---|
| 2026-05-08 02:18 | 1.35278 | 103.98400 | 37 ft | 0 kts | 112° |
| 2026-05-08 02:30 | 1.35280 | 103.98396 | 38 ft | 3 kts | 111° |
| 2026-05-08 02:30 | 1.35288 | 103.98370 | 36 ft | 3 kts | 101° |
| 2026-05-08 02:30 | 1.35291 | 103.98344 | 38 ft | 3 kts | 88° |
| 2026-05-08 02:30 | 1.35287 | 103.98319 | 36 ft | 3 kts | 66° |
| 2026-05-08 02:31 | 1.35274 | 103.98300 | 36 ft | 4 kts | 32° |
| 2026-05-08 02:31 | 1.35268 | 103.98297 | 35 ft | 0 kts | 22° |
| 2026-05-08 02:33 | 1.35270 | 103.98298 | 35 ft | 1 kts | 23° |
| 2026-05-08 02:34 | 1.35291 | 103.98307 | 36 ft | 6 kts | 23° |
| 2026-05-08 02:34 | 1.35341 | 103.98308 | 38 ft | 9 kts | 350° |
| 2026-05-08 02:34 | 1.35416 | 103.98287 | 38 ft | 13 kts | 343° |
| 2026-05-08 02:34 | 1.35513 | 103.98302 | 38 ft | 16 kts | 22° |
| 2026-05-08 02:35 | 1.35631 | 103.98351 | 38 ft | 20 kts | 23° |
| 2026-05-08 02:35 | 1.35771 | 103.98410 | 36 ft | 23 kts | 22° |
| 2026-05-08 02:35 | 1.35917 | 103.98471 | 38 ft | 23 kts | 23° |
| 2026-05-08 02:35 | 1.36062 | 103.98533 | 38 ft | 23 kts | 23° |
| 2026-05-08 02:36 | 1.36206 | 103.98595 | 38 ft | 23 kts | 23° |
| 2026-05-08 02:36 | 1.36352 | 103.98654 | 38 ft | 23 kts | 22° |
| 2026-05-08 02:36 | 1.36498 | 103.98715 | 38 ft | 23 kts | 23° |
| 2026-05-08 02:36 | 1.36644 | 103.98777 | 38 ft | 23 kts | 22° |
| 2026-05-08 02:37 | 1.36786 | 103.98841 | 38 ft | 19 kts | 43° |
| 2026-05-08 02:37 | 1.36780 | 103.98919 | 38 ft | 10 kts | 118° |
| 2026-05-08 02:37 | 1.36748 | 103.98985 | 38 ft | 11 kts | 115° |
| 2026-05-08 02:37 | 1.36714 | 103.99064 | 38 ft | 14 kts | 112° |
| 2026-05-08 02:38 | 1.36673 | 103.99163 | 38 ft | 17 kts | 113° |
| 2026-05-08 02:38 | 1.36623 | 103.99278 | 38 ft | 19 kts | 112° |
| 2026-05-08 02:38 | 1.36566 | 103.99409 | 38 ft | 22 kts | 114° |
| 2026-05-08 02:38 | 1.36506 | 103.99548 | 38 ft | 22 kts | 114° |
| 2026-05-08 02:39 | 1.36446 | 103.99686 | 38 ft | 22 kts | 113° |
| 2026-05-08 02:39 | 1.36393 | 103.99810 | 38 ft | 14 kts | 113° |
| 2026-05-08 02:39 | 1.36321 | 103.99866 | 37 ft | 14 kts | 167° |
| 2026-05-08 02:39 | 1.36226 | 103.99882 | 36 ft | 15 kts | 170° |
| 2026-05-08 02:40 | 1.36138 | 103.99873 | 35 ft | 11 kts | 201° |
| 2026-05-08 02:40 | 1.36127 | 103.99869 | 36 ft | 2 kts | 202° |
| 2026-05-08 02:40 | 1.36045 | 103.99836 | 36 ft | 31 kts | 203° |
| 2026-05-08 02:40 | 1.35660 | 103.99672 | 38 ft | 89 kts | 203° |
| 2026-05-08 02:41 | 1.34921 | 103.99360 | 38 ft | 141 kts | 202° |
| 2026-05-08 02:41 | 1.33885 | 103.98927 | 250 ft | 169 kts | 198° |
| 2026-05-08 02:41 | 1.32858 | 103.98440 | 1138 ft | 158 kts | 208° |
| 2026-05-08 02:41 | 1.31899 | 103.97880 | 1863 ft | 167 kts | 210° |
| 2026-05-08 02:42 | 1.30697 | 103.97392 | 1805 ft | 193 kts | 198° |
| 2026-05-08 02:42 | 1.29347 | 103.96948 | 1956 ft | 222 kts | 199° |
| 2026-05-08 02:42 | 1.27802 | 103.96371 | 2400 ft | 250 kts | 202° |
| 2026-05-08 02:42 | 1.26180 | 103.95673 | 3244 ft | 258 kts | 204° |
| 2026-05-08 02:43 | 1.24490 | 103.95039 | 4221 ft | 262 kts | 189° |
| 2026-05-08 02:43 | 1.22673 | 103.95165 | 5194 ft | 267 kts | 163° |
| 2026-05-08 02:43 | 1.21058 | 103.96114 | 6118 ft | 273 kts | 142° |
| 2026-05-08 02:43 | 1.19609 | 103.97337 | 6981 ft | 277 kts | 139° |
| 2026-05-08 02:44 | 1.18163 | 103.98646 | 7894 ft | 281 kts | 139° |
| 2026-05-08 02:44 | 1.16861 | 104.00117 | 8782 ft | 286 kts | 117° |
| 2026-05-08 02:44 | 1.16293 | 104.02003 | 9662 ft | 291 kts | 92° |
| 2026-05-08 02:44 | 1.16593 | 104.04024 | 10270 ft | 306 kts | 67° |
| 2026-05-08 02:45 | 1.17801 | 104.05877 | 10511 ft | 333 kts | 53° |
| 2026-05-08 02:45 | 1.19307 | 104.07762 | 10713 ft | 358 kts | 50° |
| 2026-05-08 02:45 | 1.21214 | 104.09361 | 11538 ft | 358 kts | 31° |
| 2026-05-08 02:45 | 1.23353 | 104.10602 | 12287 ft | 362 kts | 30° |
| 2026-05-08 02:46 | 1.25655 | 104.11646 | 13088 ft | 365 kts | 14° |
| 2026-05-08 02:46 | 1.28198 | 104.11846 | 13853 ft | 371 kts | 354° |
| 2026-05-08 02:46 | 1.30698 | 104.11134 | 14504 ft | 378 kts | 333° |
| 2026-05-08 02:46 | 1.32848 | 104.09631 | 15121 ft | 385 kts | 321° |
| 2026-05-08 02:47 | 1.34917 | 104.07883 | 15754 ft | 389 kts | 320° |
| 2026-05-08 02:47 | 1.36970 | 104.06085 | 16408 ft | 394 kts | 320° |
| 2026-05-08 02:47 | 1.39073 | 104.04294 | 17020 ft | 398 kts | 321° |
| 2026-05-08 02:47 | 1.41241 | 104.02601 | 17633 ft | 401 kts | 330° |
| 2026-05-08 02:48 | 1.43802 | 104.01483 | 18386 ft | 404 kts | 343° |
| 2026-05-08 02:48 | 1.46503 | 104.00593 | 19024 ft | 410 kts | 344° |
| 2026-05-08 02:48 | 1.49204 | 103.99746 | 19565 ft | 412 kts | 344° |
| 2026-05-08 02:48 | 1.51968 | 103.98865 | 20068 ft | 416 kts | 343° |
| 2026-05-08 02:49 | 1.54735 | 103.97957 | 20568 ft | 419 kts | 343° |
| 2026-05-08 02:49 | 1.57484 | 103.97059 | 21050 ft | 423 kts | 344° |
| 2026-05-08 02:49 | 1.60303 | 103.96151 | 21519 ft | 426 kts | 344° |
| 2026-05-08 02:49 | 1.63152 | 103.95233 | 21985 ft | 429 kts | 344° |
| 2026-05-08 02:50 | 1.65980 | 103.94316 | 22428 ft | 433 kts | 344° |
| 2026-05-08 02:50 | 1.68858 | 103.93381 | 22870 ft | 436 kts | 344° |
| 2026-05-08 02:50 | 1.71759 | 103.92442 | 23302 ft | 439 kts | 344° |
| 2026-05-08 02:50 | 1.74686 | 103.91515 | 23680 ft | 441 kts | 348° |
| 2026-05-08 02:51 | 1.77672 | 103.91061 | 24022 ft | 439 kts | 358° |
| 2026-05-08 02:51 | 1.80738 | 103.90851 | 24361 ft | 441 kts | 359° |
| 2026-05-08 02:51 | 1.83815 | 103.90669 | 24723 ft | 444 kts | 359° |
| 2026-05-08 02:51 | 1.86886 | 103.90485 | 25064 ft | 446 kts | 359° |
| 2026-05-08 02:52 | 1.90005 | 103.90281 | 25417 ft | 448 kts | 358° |
| 2026-05-08 02:52 | 1.93137 | 103.90074 | 25773 ft | 451 kts | 359° |
| 2026-05-08 02:52 | 1.96249 | 103.89878 | 26113 ft | 453 kts | 359° |
| 2026-05-08 02:52 | 1.99412 | 103.89681 | 26470 ft | 456 kts | 359° |
| 2026-05-08 02:53 | 2.02586 | 103.89478 | 26829 ft | 458 kts | 359° |
| 2026-05-08 02:53 | 2.05786 | 103.89272 | 27180 ft | 461 kts | 359° |
| 2026-05-08 02:53 | 2.08955 | 103.89070 | 27554 ft | 463 kts | 359° |
| 2026-05-08 02:53 | 2.12189 | 103.88865 | 27909 ft | 466 kts | 359° |
| 2026-05-08 02:54 | 2.15439 | 103.88658 | 28270 ft | 468 kts | 359° |
| 2026-05-08 02:54 | 2.18666 | 103.88452 | 28625 ft | 471 kts | 359° |
| 2026-05-08 02:54 | 2.21965 | 103.88242 | 28984 ft | 474 kts | 359° |
| 2026-05-08 02:54 | 2.25273 | 103.88031 | 29347 ft | 476 kts | 359° |
| 2026-05-08 02:55 | 2.28554 | 103.87822 | 29698 ft | 479 kts | 359° |
| 2026-05-08 02:55 | 2.35274 | 103.87394 | 30373 ft | 484 kts | 358° |
| 2026-05-08 02:55 | 2.38577 | 103.86923 | 30691 ft | 489 kts | 347° |
| 2026-05-08 02:56 | 2.41805 | 103.85806 | 30998 ft | 494 kts | 337° |
| 2026-05-08 02:56 | 2.44956 | 103.84384 | 31249 ft | 497 kts | 337° |
| 2026-05-08 02:56 | 2.48111 | 103.82932 | 31579 ft | 499 kts | 337° |
| 2026-05-08 02:56 | 2.51246 | 103.81483 | 31889 ft | 501 kts | 337° |
| 2026-05-08 02:57 | 2.54427 | 103.80032 | 32184 ft | 503 kts | 337° |
| 2026-05-08 02:57 | 2.57633 | 103.78574 | 32501 ft | 505 kts | 337° |
| 2026-05-08 02:57 | 2.60843 | 103.77105 | 32808 ft | 507 kts | 337° |
| 2026-05-08 02:57 | 2.64023 | 103.75646 | 33104 ft | 510 kts | 337° |
| 2026-05-08 02:58 | 2.67274 | 103.74158 | 33397 ft | 512 kts | 337° |
| 2026-05-08 02:58 | 2.70525 | 103.72673 | 33737 ft | 513 kts | 337° |
| 2026-05-08 02:58 | 2.73732 | 103.71207 | 34131 ft | 511 kts | 337° |
| 2026-05-08 02:58 | 2.76983 | 103.69744 | 34491 ft | 510 kts | 337° |
| 2026-05-08 02:59 | 2.80226 | 103.68310 | 34870 ft | 509 kts | 337° |
| 2026-05-08 02:59 | 2.83441 | 103.66877 | 35264 ft | 507 kts | 337° |
| 2026-05-08 02:59 | 2.86668 | 103.65423 | 35658 ft | 506 kts | 337° |
| 2026-05-08 02:59 | 2.89851 | 103.63992 | 36029 ft | 504 kts | 337° |
| 2026-05-08 03:00 | 2.93060 | 103.62564 | 36412 ft | 503 kts | 337° |
| 2026-05-08 03:00 | 2.96260 | 103.61149 | 36787 ft | 501 kts | 337° |
| 2026-05-08 03:00 | 2.99452 | 103.59729 | 37175 ft | 500 kts | 337° |
| 2026-05-08 03:00 | 3.02589 | 103.58328 | 37536 ft | 499 kts | 337° |
| 2026-05-08 03:01 | 3.05755 | 103.56917 | 37903 ft | 498 kts | 337° |
| 2026-05-08 03:01 | 3.12138 | 103.54080 | 37897 ft | 501 kts | 337° |
| 2026-05-08 03:02 | 3.18472 | 103.51251 | 37893 ft | 496 kts | 336° |
| 2026-05-08 03:02 | 3.24727 | 103.48427 | 37892 ft | 495 kts | 337° |
| 2026-05-08 03:03 | 3.31000 | 103.45611 | 37889 ft | 496 kts | 337° |
| 2026-05-08 03:03 | 3.37324 | 103.42763 | 37887 ft | 496 kts | 337° |
| 2026-05-08 03:04 | 3.43693 | 103.40184 | 37900 ft | 496 kts | 339° |
| 2026-05-08 03:04 | 3.50082 | 103.37603 | 37897 ft | 497 kts | 339° |
| 2026-05-08 03:05 | 3.56534 | 103.35065 | 37893 ft | 497 kts | 339° |
| 2026-05-08 03:05 | 3.62970 | 103.32494 | 37894 ft | 497 kts | 339° |
| 2026-05-08 03:06 | 3.69416 | 103.29940 | 37895 ft | 497 kts | 339° |
| 2026-05-08 03:06 | 3.75822 | 103.27390 | 37894 ft | 497 kts | 339° |
| 2026-05-08 03:07 | 3.82216 | 103.24850 | 37893 ft | 496 kts | 339° |
| 2026-05-08 03:07 | 3.88650 | 103.22291 | 37890 ft | 496 kts | 339° |
| 2026-05-08 03:08 | 3.95021 | 103.19758 | 37892 ft | 495 kts | 339° |
| 2026-05-08 03:08 | 4.01441 | 103.17205 | 37886 ft | 494 kts | 339° |
| 2026-05-08 03:09 | 4.07812 | 103.14671 | 37891 ft | 495 kts | 339° |
| 2026-05-08 03:09 | 4.14235 | 103.12116 | 37897 ft | 496 kts | 339° |
| 2026-05-08 03:10 | 4.20675 | 103.09553 | 37898 ft | 497 kts | 339° |
| 2026-05-08 03:10 | 4.27077 | 103.07005 | 37901 ft | 498 kts | 339° |
| 2026-05-08 03:11 | 4.33526 | 103.04438 | 37903 ft | 497 kts | 339° |
| 2026-05-08 03:11 | 4.39939 | 103.01885 | 37906 ft | 497 kts | 339° |
| 2026-05-08 03:12 | 4.46340 | 102.99336 | 37910 ft | 497 kts | 339° |
| 2026-05-08 03:12 | 4.52778 | 102.96771 | 37910 ft | 498 kts | 339° |
| 2026-05-08 03:13 | 4.59175 | 102.94223 | 37913 ft | 497 kts | 339° |
| 2026-05-08 03:13 | 4.65609 | 102.91660 | 37911 ft | 496 kts | 339° |
| 2026-05-08 03:14 | 4.71989 | 102.89117 | 37907 ft | 495 kts | 339° |
| 2026-05-08 03:14 | 4.78405 | 102.86560 | 37905 ft | 494 kts | 339° |
| 2026-05-08 03:15 | 4.84793 | 102.84013 | 37902 ft | 494 kts | 339° |
| 2026-05-08 03:15 | 4.91171 | 102.81474 | 37905 ft | 494 kts | 339° |
| 2026-05-08 03:16 | 4.97563 | 102.78936 | 37910 ft | 495 kts | 339° |
| 2026-05-08 03:16 | 5.02895 | 102.76814 | 37912 ft | 495 kts | 339° |
| 2026-05-08 03:17 | 5.09275 | 102.74278 | 37910 ft | 493 kts | 339° |
| 2026-05-08 03:17 | 5.15621 | 102.71754 | 37910 ft | 492 kts | 339° |
| 2026-05-08 03:18 | 5.21979 | 102.69224 | 37912 ft | 491 kts | 339° |
| 2026-05-08 03:18 | 5.29339 | 102.66237 | 37912 ft | 489 kts | 339° |
| 2026-05-08 03:19 | 5.34600 | 102.64118 | 37913 ft | 489 kts | 339° |
| 2026-05-08 03:19 | 5.40925 | 102.61589 | 37910 ft | 487 kts | 339° |
| 2026-05-08 03:20 | 5.47198 | 102.59088 | 37911 ft | 486 kts | 339° |
| 2026-05-08 03:20 | 5.53480 | 102.56577 | 37907 ft | 486 kts | 339° |
| 2026-05-08 03:21 | 5.59735 | 102.54079 | 37909 ft | 485 kts | 339° |
| 2026-05-08 03:21 | 5.66009 | 102.51568 | 37905 ft | 485 kts | 339° |
| 2026-05-08 03:22 | 5.72260 | 102.49069 | 37908 ft | 485 kts | 339° |
| 2026-05-08 03:22 | 5.78541 | 102.46556 | 37910 ft | 485 kts | 339° |
| 2026-05-08 03:23 | 5.84820 | 102.44044 | 37911 ft | 485 kts | 339° |
| 2026-05-08 03:23 | 5.91059 | 102.41546 | 37908 ft | 485 kts | 339° |
| 2026-05-08 03:24 | 5.97350 | 102.39028 | 37900 ft | 485 kts | 339° |
| 2026-05-08 03:24 | 6.03589 | 102.36530 | 37897 ft | 485 kts | 339° |
| 2026-05-08 03:25 | 6.09843 | 102.34025 | 37889 ft | 485 kts | 339° |
| 2026-05-08 03:25 | 6.16111 | 102.31504 | 37892 ft | 485 kts | 336° |
| 2026-05-08 03:26 | 6.22148 | 102.28440 | 37895 ft | 486 kts | 333° |
| 2026-05-08 03:26 | 6.28149 | 102.25354 | 37898 ft | 486 kts | 334° |
| 2026-05-08 03:27 | 6.34183 | 102.22255 | 37899 ft | 486 kts | 334° |
| 2026-05-08 03:27 | 6.40177 | 102.19172 | 37900 ft | 485 kts | 334° |
| 2026-05-08 03:28 | 6.46197 | 102.16078 | 37900 ft | 485 kts | 334° |
| 2026-05-08 03:28 | 6.52183 | 102.12998 | 37905 ft | 485 kts | 334° |
| 2026-05-08 03:29 | 6.58200 | 102.09903 | 37901 ft | 485 kts | 334° |
| 2026-05-08 03:29 | 6.64215 | 102.06808 | 37903 ft | 486 kts | 334° |
| 2026-05-08 03:30 | 6.73231 | 102.02167 | 37909 ft | 487 kts | 334° |
| 2026-05-08 03:31 | 6.85263 | 101.95970 | 37907 ft | 486 kts | 334° |
| 2026-05-08 03:32 | 6.94286 | 101.91320 | 37906 ft | 486 kts | 334° |
| 2026-05-08 03:32 | 7.00324 | 101.88208 | 37904 ft | 487 kts | 334° |
| 2026-05-08 03:33 | 7.06340 | 101.85106 | 37904 ft | 487 kts | 334° |
| 2026-05-08 03:33 | 7.12377 | 101.81993 | 37904 ft | 486 kts | 334° |
| 2026-05-08 03:34 | 7.18374 | 101.78899 | 37902 ft | 486 kts | 334° |
| 2026-05-08 03:34 | 7.24370 | 101.75804 | 37906 ft | 487 kts | 334° |
| 2026-05-08 03:35 | 7.30404 | 101.72689 | 37905 ft | 486 kts | 334° |
| 2026-05-08 03:35 | 7.36430 | 101.69577 | 37903 ft | 485 kts | 334° |
| 2026-05-08 03:36 | 7.42414 | 101.66486 | 37901 ft | 485 kts | 334° |
| 2026-05-08 03:36 | 7.48394 | 101.63397 | 37902 ft | 485 kts | 334° |
| 2026-05-08 03:37 | 7.54414 | 101.60285 | 37900 ft | 485 kts | 334° |
| 2026-05-08 03:37 | 7.60435 | 101.57172 | 37899 ft | 485 kts | 334° |
| 2026-05-08 03:38 | 7.66419 | 101.54077 | 37901 ft | 485 kts | 334° |
| 2026-05-08 03:38 | 7.72451 | 101.50986 | 37901 ft | 486 kts | 334° |
| 2026-05-08 03:39 | 7.78461 | 101.47904 | 37902 ft | 486 kts | 334° |
| 2026-05-08 03:39 | 7.84505 | 101.44802 | 37902 ft | 486 kts | 334° |
| 2026-05-08 03:40 | 7.90507 | 101.41723 | 37900 ft | 486 kts | 334° |
| 2026-05-08 03:40 | 7.96573 | 101.38608 | 37902 ft | 487 kts | 334° |
| 2026-05-08 03:41 | 8.02596 | 101.35516 | 37901 ft | 488 kts | 334° |
| 2026-05-08 03:41 | 8.08629 | 101.32416 | 37902 ft | 488 kts | 334° |
| 2026-05-08 03:42 | 8.14685 | 101.29304 | 37900 ft | 487 kts | 334° |
| 2026-05-08 03:42 | 8.20711 | 101.26206 | 37901 ft | 487 kts | 334° |
| 2026-05-08 03:43 | 8.26751 | 101.23100 | 37898 ft | 488 kts | 334° |
| 2026-05-08 03:43 | 8.32792 | 101.19992 | 37900 ft | 488 kts | 334° |
| 2026-05-08 03:44 | 8.38824 | 101.16888 | 37903 ft | 488 kts | 334° |
| 2026-05-08 03:44 | 8.44860 | 101.13780 | 37899 ft | 488 kts | 334° |
| 2026-05-08 03:45 | 8.50934 | 101.10652 | 37897 ft | 488 kts | 334° |
| 2026-05-08 03:45 | 8.56957 | 101.07550 | 37899 ft | 488 kts | 334° |
| 2026-05-08 03:46 | 8.63001 | 101.04453 | 37899 ft | 488 kts | 334° |
| 2026-05-08 03:46 | 8.69075 | 101.01349 | 37900 ft | 489 kts | 334° |
| 2026-05-08 03:47 | 8.75168 | 100.98227 | 37902 ft | 489 kts | 334° |
| 2026-05-08 03:47 | 8.81217 | 100.95131 | 37901 ft | 489 kts | 334° |
| 2026-05-08 03:48 | 8.87267 | 100.92030 | 37901 ft | 489 kts | 334° |
| 2026-05-08 03:48 | 8.93349 | 100.88914 | 37905 ft | 489 kts | 334° |
| 2026-05-08 03:49 | 8.99407 | 100.85808 | 37907 ft | 490 kts | 334° |
| 2026-05-08 03:49 | 9.05499 | 100.82683 | 37908 ft | 490 kts | 334° |
| 2026-05-08 03:50 | 9.11545 | 100.79581 | 37907 ft | 490 kts | 334° |
| 2026-05-08 03:50 | 9.17645 | 100.76451 | 37907 ft | 490 kts | 334° |
| 2026-05-08 03:51 | 9.23704 | 100.73339 | 37906 ft | 490 kts | 334° |
| 2026-05-08 03:51 | 9.29809 | 100.70203 | 37907 ft | 491 kts | 334° |
| 2026-05-08 03:52 | 9.35895 | 100.67075 | 37908 ft | 492 kts | 334° |
| 2026-05-08 03:52 | 9.41984 | 100.63945 | 37909 ft | 492 kts | 334° |
| 2026-05-08 03:53 | 9.48076 | 100.60812 | 37908 ft | 493 kts | 334° |
| 2026-05-08 03:53 | 9.54205 | 100.57660 | 37904 ft | 495 kts | 334° |
| 2026-05-08 03:54 | 9.60354 | 100.54497 | 37903 ft | 494 kts | 334° |
| 2026-05-08 03:54 | 9.66456 | 100.51358 | 37904 ft | 494 kts | 334° |
| 2026-05-08 03:55 | 9.72604 | 100.48198 | 37906 ft | 494 kts | 334° |
| 2026-05-08 03:55 | 9.78754 | 100.45103 | 37902 ft | 494 kts | 334° |
| 2026-05-08 03:56 | 9.84907 | 100.41974 | 37901 ft | 494 kts | 334° |
| 2026-05-08 03:56 | 9.91028 | 100.38875 | 37904 ft | 493 kts | 334° |
| 2026-05-08 03:57 | 9.97175 | 100.35756 | 37904 ft | 493 kts | 334° |
| 2026-05-08 03:57 | 10.03283 | 100.32658 | 37902 ft | 493 kts | 334° |
| 2026-05-08 03:58 | 10.09456 | 100.29527 | 37904 ft | 495 kts | 334° |
| 2026-05-08 03:58 | 10.15590 | 100.26413 | 37907 ft | 495 kts | 334° |
| 2026-05-08 03:59 | 10.21737 | 100.23292 | 37909 ft | 495 kts | 334° |
| 2026-05-08 03:59 | 10.27889 | 100.20166 | 37908 ft | 495 kts | 334° |
| 2026-05-08 04:00 | 10.34038 | 100.17042 | 37909 ft | 494 kts | 334° |
| 2026-05-08 04:00 | 10.40201 | 100.13908 | 37907 ft | 495 kts | 334° |
| 2026-05-08 04:01 | 10.46345 | 100.10782 | 37907 ft | 496 kts | 334° |
| 2026-05-08 04:01 | 10.52541 | 100.07630 | 37909 ft | 496 kts | 334° |
| 2026-05-08 04:02 | 10.58691 | 100.04498 | 37909 ft | 497 kts | 334° |
| 2026-05-08 04:02 | 10.64858 | 100.01357 | 37920 ft | 497 kts | 334° |
| 2026-05-08 04:03 | 10.71033 | 99.98210 | 37914 ft | 497 kts | 334° |
| 2026-05-08 04:03 | 10.80306 | 99.93482 | 37915 ft | 497 kts | 334° |
| 2026-05-08 04:04 | 10.86473 | 99.90336 | 37922 ft | 498 kts | 334° |
| 2026-05-08 04:04 | 10.92701 | 99.87158 | 37924 ft | 498 kts | 334° |
| 2026-05-08 04:05 | 10.98875 | 99.84007 | 37916 ft | 497 kts | 334° |
| 2026-05-08 04:05 | 11.05064 | 99.80845 | 37919 ft | 496 kts | 334° |
| 2026-05-08 04:06 | 11.11225 | 99.77698 | 37916 ft | 497 kts | 334° |
| 2026-05-08 04:06 | 11.17394 | 99.74524 | 37915 ft | 498 kts | 333° |
| 2026-05-08 04:07 | 11.23516 | 99.71273 | 37910 ft | 498 kts | 334° |
| 2026-05-08 04:07 | 11.29701 | 99.68045 | 37919 ft | 498 kts | 334° |
| 2026-05-08 04:08 | 11.35834 | 99.64811 | 37918 ft | 498 kts | 334° |
| 2026-05-08 04:08 | 11.42005 | 99.61572 | 37918 ft | 498 kts | 334° |
| 2026-05-08 04:09 | 11.48137 | 99.58343 | 37916 ft | 498 kts | 334° |
| 2026-05-08 04:09 | 11.54310 | 99.55095 | 37921 ft | 498 kts | 334° |
| 2026-05-08 04:10 | 11.60437 | 99.51869 | 37916 ft | 498 kts | 334° |
| 2026-05-08 04:10 | 11.66607 | 99.48630 | 37919 ft | 499 kts | 334° |
| 2026-05-08 04:11 | 11.72807 | 99.45405 | 37912 ft | 499 kts | 334° |
| 2026-05-08 04:11 | 11.78967 | 99.42179 | 37913 ft | 498 kts | 334° |
| 2026-05-08 04:12 | 11.85126 | 99.38964 | 37917 ft | 498 kts | 334° |
| 2026-05-08 04:12 | 11.91288 | 99.35739 | 37909 ft | 498 kts | 334° |
| 2026-05-08 04:13 | 11.97427 | 99.32528 | 37914 ft | 498 kts | 334° |
| 2026-05-08 04:13 | 12.03575 | 99.29309 | 37917 ft | 497 kts | 333° |
| 2026-05-08 04:14 | 12.09744 | 99.26078 | 37912 ft | 496 kts | 333° |
| 2026-05-08 04:14 | 12.15875 | 99.22865 | 37917 ft | 497 kts | 333° |
| 2026-05-08 04:15 | 12.22012 | 99.19647 | 37909 ft | 497 kts | 333° |
| 2026-05-08 04:15 | 12.28163 | 99.16420 | 37913 ft | 498 kts | 333° |
| 2026-05-08 04:16 | 12.34325 | 99.13186 | 37915 ft | 499 kts | 333° |
| 2026-05-08 04:16 | 12.40514 | 99.09936 | 37924 ft | 498 kts | 333° |
| 2026-05-08 04:17 | 12.46646 | 99.06714 | 37917 ft | 497 kts | 333° |
| 2026-05-08 04:17 | 12.52796 | 99.03481 | 37918 ft | 497 kts | 333° |
| 2026-05-08 04:18 | 12.58947 | 99.00245 | 37917 ft | 498 kts | 333° |
| 2026-05-08 04:18 | 12.65116 | 98.96999 | 37911 ft | 498 kts | 333° |
| 2026-05-08 04:19 | 12.71261 | 98.93763 | 37913 ft | 497 kts | 333° |
| 2026-05-08 04:19 | 12.77375 | 98.90541 | 37918 ft | 496 kts | 333° |
| 2026-05-08 04:20 | 12.83530 | 98.87297 | 37914 ft | 496 kts | 333° |
| 2026-05-08 04:20 | 12.89655 | 98.84066 | 37912 ft | 496 kts | 333° |
| 2026-05-08 04:21 | 12.95762 | 98.80843 | 37911 ft | 496 kts | 333° |
| 2026-05-08 04:21 | 13.01909 | 98.77598 | 37906 ft | 495 kts | 333° |
| 2026-05-08 04:22 | 13.08024 | 98.74367 | 37906 ft | 496 kts | 333° |
| 2026-05-08 04:22 | 13.13124 | 98.71671 | 37910 ft | 495 kts | 333° |
| 2026-05-08 04:23 | 13.20246 | 98.67904 | 37910 ft | 494 kts | 333° |
| 2026-05-08 04:23 | 13.25362 | 98.65197 | 37914 ft | 495 kts | 333° |
| 2026-05-08 04:24 | 13.31475 | 98.61960 | 37911 ft | 496 kts | 333° |
| 2026-05-08 04:24 | 13.37632 | 98.58698 | 37920 ft | 495 kts | 333° |
| 2026-05-08 04:25 | 13.43729 | 98.55466 | 37914 ft | 495 kts | 333° |
| 2026-05-08 04:25 | 13.49863 | 98.52212 | 37916 ft | 494 kts | 333° |
| 2026-05-08 04:26 | 13.55995 | 98.49012 | 37919 ft | 495 kts | 334° |
| 2026-05-08 04:26 | 13.62117 | 98.45812 | 37917 ft | 495 kts | 334° |
| 2026-05-08 04:27 | 13.68252 | 98.42601 | 37915 ft | 494 kts | 334° |
| 2026-05-08 04:27 | 13.74391 | 98.39389 | 37914 ft | 494 kts | 334° |
| 2026-05-08 04:28 | 13.80470 | 98.36204 | 37920 ft | 493 kts | 334° |
| 2026-05-08 04:28 | 13.86594 | 98.32995 | 37911 ft | 492 kts | 334° |
| 2026-05-08 04:29 | 13.92674 | 98.29806 | 37913 ft | 492 kts | 334° |
| 2026-05-08 04:29 | 13.98778 | 98.26603 | 37910 ft | 492 kts | 334° |
| 2026-05-08 04:30 | 14.04846 | 98.23418 | 37908 ft | 492 kts | 334° |
| 2026-05-08 04:30 | 14.10973 | 98.20200 | 37910 ft | 493 kts | 334° |
| 2026-05-08 04:31 | 14.17068 | 98.17003 | 37905 ft | 493 kts | 334° |
| 2026-05-08 04:31 | 14.23150 | 98.13809 | 37910 ft | 493 kts | 334° |
| 2026-05-08 04:32 | 14.29286 | 98.10586 | 37898 ft | 493 kts | 333° |
| 2026-05-08 04:32 | 14.35386 | 98.07379 | 37904 ft | 494 kts | 333° |
| 2026-05-08 04:33 | 14.41529 | 98.04148 | 37899 ft | 495 kts | 333° |
| 2026-05-08 04:33 | 14.47632 | 98.00936 | 37896 ft | 495 kts | 333° |
| 2026-05-08 04:34 | 14.53787 | 97.97695 | 37903 ft | 494 kts | 333° |
| 2026-05-08 04:34 | 14.59888 | 97.94480 | 37901 ft | 494 kts | 333° |
| 2026-05-08 04:35 | 14.66032 | 97.91240 | 37898 ft | 495 kts | 333° |
| 2026-05-08 04:35 | 14.72146 | 97.88009 | 37902 ft | 495 kts | 333° |
| 2026-05-08 04:36 | 14.78250 | 97.84772 | 37900 ft | 495 kts | 333° |
| 2026-05-08 04:36 | 14.84409 | 97.81510 | 37899 ft | 499 kts | 333° |
| 2026-05-08 04:37 | 14.90563 | 97.78246 | 37897 ft | 498 kts | 333° |
| 2026-05-08 04:37 | 14.96694 | 97.74992 | 37905 ft | 497 kts | 333° |
| 2026-05-08 04:38 | 15.02866 | 97.71712 | 37903 ft | 496 kts | 333° |
| 2026-05-08 04:38 | 15.08979 | 97.68463 | 37891 ft | 496 kts | 333° |
| 2026-05-08 04:39 | 15.15124 | 97.65194 | 37896 ft | 496 kts | 333° |
| 2026-05-08 04:39 | 15.21237 | 97.61940 | 37896 ft | 496 kts | 333° |
| 2026-05-08 04:40 | 15.27384 | 97.58666 | 37897 ft | 496 kts | 333° |
| 2026-05-08 04:40 | 15.33486 | 97.55414 | 37897 ft | 495 kts | 333° |
| 2026-05-08 04:41 | 15.39645 | 97.52129 | 37891 ft | 495 kts | 333° |
| 2026-05-08 04:41 | 15.45764 | 97.48866 | 37887 ft | 495 kts | 333° |
| 2026-05-08 04:42 | 15.51927 | 97.45724 | 37887 ft | 495 kts | 334° |
| 2026-05-08 04:42 | 15.58096 | 97.42528 | 37891 ft | 496 kts | 333° |
| 2026-05-08 04:43 | 15.64294 | 97.39333 | 37890 ft | 497 kts | 333° |
| 2026-05-08 04:43 | 15.70467 | 97.36145 | 37894 ft | 498 kts | 333° |
| 2026-05-08 04:44 | 15.76677 | 97.32934 | 37889 ft | 498 kts | 333° |
| 2026-05-08 04:44 | 15.82867 | 97.29734 | 37890 ft | 498 kts | 333° |
| 2026-05-08 04:45 | 15.89077 | 97.26519 | 37886 ft | 498 kts | 333° |
| 2026-05-08 04:45 | 15.95261 | 97.23317 | 37888 ft | 500 kts | 333° |
| 2026-05-08 04:46 | 16.01504 | 97.20080 | 37884 ft | 500 kts | 333° |
| 2026-05-08 04:46 | 16.07705 | 97.16865 | 37881 ft | 501 kts | 333° |
| 2026-05-08 04:47 | 16.13955 | 97.13621 | 37885 ft | 500 kts | 333° |
| 2026-05-08 04:47 | 16.20160 | 97.10398 | 37888 ft | 500 kts | 333° |
| 2026-05-08 04:48 | 16.26412 | 97.07149 | 37880 ft | 500 kts | 333° |
| 2026-05-08 04:48 | 16.32620 | 97.03920 | 37882 ft | 501 kts | 333° |
| 2026-05-08 04:49 | 16.38859 | 97.00673 | 37880 ft | 501 kts | 333° |
| 2026-05-08 04:49 | 16.45085 | 96.97429 | 37885 ft | 501 kts | 333° |
| 2026-05-08 04:50 | 16.51281 | 96.94200 | 37892 ft | 500 kts | 333° |
| 2026-05-08 04:50 | 16.57513 | 96.90950 | 37889 ft | 500 kts | 333° |
| 2026-05-08 04:51 | 16.63712 | 96.87714 | 37883 ft | 499 kts | 333° |
| 2026-05-08 04:51 | 16.69920 | 96.84471 | 37885 ft | 497 kts | 333° |
| 2026-05-08 04:52 | 16.76109 | 96.81236 | 37889 ft | 496 kts | 332° |
| 2026-05-08 04:52 | 16.82243 | 96.78027 | 37887 ft | 495 kts | 332° |
| 2026-05-08 04:53 | 16.88386 | 96.74810 | 37885 ft | 495 kts | 332° |
| 2026-05-08 04:53 | 16.94558 | 96.71577 | 37885 ft | 495 kts | 332° |
| 2026-05-08 04:54 | 17.00689 | 96.68362 | 37879 ft | 496 kts | 332° |
| 2026-05-08 04:54 | 17.06870 | 96.65120 | 37877 ft | 496 kts | 332° |
| 2026-05-08 04:55 | 17.13022 | 96.61889 | 37879 ft | 495 kts | 332° |
| 2026-05-08 04:55 | 17.19162 | 96.58663 | 37873 ft | 494 kts | 332° |
| 2026-05-08 04:56 | 17.25318 | 96.55426 | 37865 ft | 494 kts | 332° |
| 2026-05-08 04:56 | 17.31229 | 96.51874 | 37885 ft | 491 kts | 318° |
| 2026-05-08 04:57 | 17.33675 | 96.49395 | 37891 ft | 490 kts | 307° |
| 2026-05-08 04:57 | 17.35770 | 96.46579 | 37873 ft | 490 kts | 306° |
| 2026-05-08 04:57 | 17.39879 | 96.40870 | 37868 ft | 490 kts | 305° |
| 2026-05-08 04:58 | 17.43972 | 96.35202 | 37873 ft | 489 kts | 306° |
| 2026-05-08 04:58 | 17.48082 | 96.29501 | 37868 ft | 489 kts | 305° |
| 2026-05-08 04:59 | 17.52165 | 96.23830 | 37869 ft | 490 kts | 305° |
| 2026-05-08 04:59 | 17.56271 | 96.18127 | 37868 ft | 489 kts | 305° |
| 2026-05-08 05:00 | 17.60342 | 96.12465 | 37856 ft | 488 kts | 305° |
| 2026-05-08 05:00 | 17.64443 | 96.06758 | 37857 ft | 489 kts | 305° |
| 2026-05-08 05:01 | 17.68518 | 96.01079 | 37867 ft | 490 kts | 305° |
| 2026-05-08 05:01 | 17.72621 | 95.95359 | 37872 ft | 490 kts | 305° |
| 2026-05-08 05:02 | 17.76701 | 95.89667 | 37864 ft | 489 kts | 304° |
| 2026-05-08 05:02 | 17.80794 | 95.83949 | 37862 ft | 488 kts | 304° |
| 2026-05-08 05:03 | 17.84875 | 95.78245 | 37863 ft | 489 kts | 304° |
| 2026-05-08 05:03 | 17.88942 | 95.72555 | 37868 ft | 489 kts | 304° |
| 2026-05-08 05:04 | 17.93035 | 95.66823 | 37867 ft | 490 kts | 304° |
| 2026-05-08 05:04 | 17.97119 | 95.61100 | 37864 ft | 490 kts | 304° |
| 2026-05-08 05:05 | 18.01195 | 95.55382 | 37864 ft | 490 kts | 304° |
| 2026-05-08 05:05 | 18.05261 | 95.49674 | 37865 ft | 489 kts | 304° |
| 2026-05-08 05:06 | 18.09342 | 95.43939 | 37865 ft | 489 kts | 304° |
| 2026-05-08 05:06 | 18.13426 | 95.38195 | 37867 ft | 489 kts | 304° |
| 2026-05-08 05:07 | 18.17502 | 95.32458 | 37865 ft | 489 kts | 304° |
| 2026-05-08 05:07 | 18.21549 | 95.26755 | 37872 ft | 490 kts | 304° |
| 2026-05-08 05:08 | 18.25615 | 95.21022 | 37868 ft | 491 kts | 304° |
| 2026-05-08 05:08 | 18.29713 | 95.15237 | 37875 ft | 492 kts | 304° |
| 2026-05-08 05:09 | 18.33592 | 95.09369 | 37877 ft | 491 kts | 302° |
| 2026-05-08 05:09 | 18.37510 | 95.03477 | 37893 ft | 489 kts | 302° |
| 2026-05-08 05:10 | 18.39413 | 95.00563 | 37878 ft | 476 kts | 302° |
| 2026-05-08 05:10 | 18.43158 | 94.94881 | 37875 ft | 472 kts | 302° |
| 2026-05-08 05:11 | 18.46896 | 94.89194 | 37879 ft | 475 kts | 302° |
| 2026-05-08 05:11 | 18.50654 | 94.83476 | 37890 ft | 477 kts | 302° |
| 2026-05-08 05:12 | 18.54441 | 94.77709 | 37896 ft | 476 kts | 302° |
| 2026-05-08 05:12 | 18.58198 | 94.71997 | 37897 ft | 476 kts | 304° |
| 2026-05-08 05:13 | 18.62105 | 94.66337 | 37899 ft | 476 kts | 303° |
| 2026-05-08 05:13 | 18.65978 | 94.60691 | 37898 ft | 477 kts | 303° |
| 2026-05-08 05:14 | 18.69865 | 94.55055 | 37898 ft | 476 kts | 303° |
| 2026-05-08 05:14 | 18.73755 | 94.49381 | 37896 ft | 477 kts | 303° |
| 2026-05-08 05:15 | 18.77641 | 94.43729 | 37895 ft | 477 kts | 303° |
| 2026-05-08 05:15 | 18.81526 | 94.38058 | 37897 ft | 477 kts | 303° |
| 2026-05-08 05:16 | 18.85428 | 94.32367 | 37893 ft | 476 kts | 303° |
| 2026-05-08 05:16 | 18.89289 | 94.26724 | 37893 ft | 477 kts | 303° |
| 2026-05-08 05:17 | 18.93174 | 94.21046 | 37887 ft | 476 kts | 303° |
| 2026-05-08 05:17 | 18.97028 | 94.15406 | 37887 ft | 475 kts | 303° |
| 2026-05-08 05:18 | 19.00902 | 94.09731 | 37885 ft | 475 kts | 302° |
| 2026-05-08 05:18 | 19.04752 | 94.04087 | 37880 ft | 475 kts | 302° |
| 2026-05-08 05:19 | 19.08621 | 93.98409 | 37878 ft | 475 kts | 302° |
| 2026-05-08 05:19 | 19.12464 | 93.92764 | 37883 ft | 475 kts | 302° |
| 2026-05-08 05:20 | 19.16327 | 93.87085 | 37883 ft | 475 kts | 302° |
| 2026-05-08 05:20 | 19.20168 | 93.81433 | 37883 ft | 475 kts | 302° |
| 2026-05-08 05:21 | 19.24078 | 93.75672 | 37874 ft | 486 kts | 302° |
| 2026-05-08 05:21 | 19.28013 | 93.69875 | 37878 ft | 485 kts | 302° |
| 2026-05-08 05:22 | 19.31947 | 93.64067 | 37881 ft | 484 kts | 302° |
| 2026-05-08 05:22 | 19.35855 | 93.58296 | 37889 ft | 484 kts | 302° |
| 2026-05-08 05:23 | 19.39755 | 93.52530 | 37895 ft | 483 kts | 302° |
| 2026-05-08 05:23 | 19.43680 | 93.46722 | 37898 ft | 483 kts | 302° |
| 2026-05-08 05:24 | 19.47576 | 93.40951 | 37903 ft | 483 kts | 302° |
| 2026-05-08 05:24 | 19.50854 | 93.36091 | 37901 ft | 483 kts | 302° |
| 2026-05-08 05:25 | 19.55382 | 93.29372 | 37903 ft | 482 kts | 302° |
| 2026-05-08 05:25 | 19.59269 | 93.23598 | 37901 ft | 481 kts | 302° |
| 2026-05-08 05:26 | 19.62514 | 93.18773 | 37905 ft | 482 kts | 302° |
| 2026-05-08 05:26 | 19.67049 | 93.12024 | 37902 ft | 482 kts | 301° |
| 2026-05-08 05:27 | 19.70286 | 93.07202 | 37908 ft | 482 kts | 301° |
| 2026-05-08 05:27 | 19.74806 | 93.00464 | 37906 ft | 480 kts | 301° |
| 2026-05-08 05:28 | 19.78037 | 92.95640 | 37907 ft | 480 kts | 301° |
| 2026-05-08 05:28 | 19.81919 | 92.89842 | 37913 ft | 480 kts | 301° |
| 2026-05-08 05:29 | 19.85756 | 92.84104 | 37907 ft | 479 kts | 301° |
| 2026-05-08 05:29 | 19.89630 | 92.78305 | 37907 ft | 480 kts | 301° |
| 2026-05-08 05:30 | 19.93475 | 92.72546 | 37914 ft | 479 kts | 301° |
| 2026-05-08 05:30 | 19.97314 | 92.66789 | 37909 ft | 479 kts | 301° |
| 2026-05-08 05:31 | 20.01179 | 92.60987 | 37909 ft | 479 kts | 301° |
| 2026-05-08 05:31 | 20.05022 | 92.55213 | 37910 ft | 479 kts | 301° |
| 2026-05-08 05:32 | 20.08876 | 92.49415 | 37914 ft | 480 kts | 301° |
| 2026-05-08 05:32 | 20.12723 | 92.43624 | 37913 ft | 479 kts | 301° |
| 2026-05-08 05:33 | 20.16548 | 92.37860 | 37915 ft | 479 kts | 301° |
| 2026-05-08 05:33 | 20.20394 | 92.32059 | 37916 ft | 478 kts | 301° |
| 2026-05-08 05:34 | 20.24202 | 92.26308 | 37913 ft | 478 kts | 301° |
| 2026-05-08 05:34 | 20.28044 | 92.20502 | 37916 ft | 477 kts | 301° |
| 2026-05-08 05:35 | 20.31847 | 92.14748 | 37916 ft | 477 kts | 301° |
| 2026-05-08 05:35 | 20.35672 | 92.08955 | 37917 ft | 477 kts | 301° |
| 2026-05-08 05:36 | 20.39486 | 92.03173 | 37915 ft | 477 kts | 301° |
| 2026-05-08 05:36 | 20.43275 | 91.97412 | 37919 ft | 475 kts | 300° |
| 2026-05-08 05:37 | 20.47001 | 91.91621 | 37918 ft | 475 kts | 300° |
| 2026-05-08 05:37 | 20.50781 | 91.85798 | 37916 ft | 475 kts | 300° |
| 2026-05-08 05:38 | 20.54508 | 91.80024 | 37915 ft | 474 kts | 300° |
| 2026-05-08 05:38 | 20.58239 | 91.74251 | 37918 ft | 473 kts | 300° |
| 2026-05-08 05:39 | 20.61975 | 91.68458 | 37920 ft | 473 kts | 300° |
| 2026-05-08 05:39 | 20.65690 | 91.62695 | 37923 ft | 472 kts | 300° |
| 2026-05-08 05:40 | 20.69414 | 91.56911 | 37919 ft | 471 kts | 300° |
| 2026-05-08 05:40 | 20.73108 | 91.51167 | 37919 ft | 471 kts | 300° |
| 2026-05-08 05:41 | 20.76823 | 91.45386 | 37927 ft | 470 kts | 300° |
| 2026-05-08 05:41 | 20.80509 | 91.39642 | 37914 ft | 469 kts | 300° |
| 2026-05-08 05:42 | 20.84200 | 91.33887 | 37918 ft | 469 kts | 300° |
| 2026-05-08 05:42 | 20.87868 | 91.28162 | 37918 ft | 468 kts | 300° |
| 2026-05-08 05:43 | 20.91532 | 91.22436 | 37923 ft | 468 kts | 299° |
| 2026-05-08 05:43 | 20.95207 | 91.16687 | 37924 ft | 467 kts | 299° |
| 2026-05-08 05:44 | 20.98873 | 91.10947 | 37920 ft | 466 kts | 299° |
| 2026-05-08 05:44 | 21.02518 | 91.05235 | 37923 ft | 466 kts | 299° |
| 2026-05-08 05:45 | 21.06159 | 90.99523 | 37926 ft | 465 kts | 299° |
| 2026-05-08 05:45 | 21.09810 | 90.93788 | 37931 ft | 465 kts | 299° |
| 2026-05-08 05:46 | 21.13452 | 90.88061 | 37928 ft | 464 kts | 299° |
| 2026-05-08 05:46 | 21.17070 | 90.82367 | 37928 ft | 465 kts | 299° |
| 2026-05-08 05:47 | 21.20718 | 90.76621 | 37930 ft | 465 kts | 299° |
| 2026-05-08 05:47 | 21.24343 | 90.70905 | 37933 ft | 465 kts | 299° |
| 2026-05-08 05:48 | 21.27968 | 90.65182 | 37928 ft | 465 kts | 299° |
| 2026-05-08 05:48 | 21.31616 | 90.59418 | 37928 ft | 466 kts | 299° |
| 2026-05-08 05:49 | 21.35249 | 90.53671 | 37927 ft | 465 kts | 299° |
| 2026-05-08 05:49 | 21.38857 | 90.47966 | 37926 ft | 464 kts | 299° |
| 2026-05-08 05:50 | 21.42487 | 90.42218 | 37929 ft | 463 kts | 298° |
| 2026-05-08 05:50 | 21.46086 | 90.36514 | 37929 ft | 463 kts | 298° |
| 2026-05-08 05:51 | 21.49701 | 90.30777 | 37932 ft | 463 kts | 298° |
| 2026-05-08 05:51 | 21.53297 | 90.25067 | 37930 ft | 463 kts | 298° |
| 2026-05-08 05:52 | 21.56906 | 90.19329 | 37926 ft | 462 kts | 298° |
| 2026-05-08 05:52 | 21.60494 | 90.13618 | 37922 ft | 463 kts | 298° |
| 2026-05-08 05:53 | 21.64098 | 90.07877 | 37933 ft | 463 kts | 298° |
| 2026-05-08 05:53 | 21.67680 | 90.02165 | 37931 ft | 462 kts | 298° |
| 2026-05-08 05:54 | 21.71277 | 89.96420 | 37926 ft | 462 kts | 298° |
| 2026-05-08 05:54 | 21.74856 | 89.90701 | 37928 ft | 462 kts | 298° |
| 2026-05-08 05:55 | 21.78441 | 89.84966 | 37927 ft | 462 kts | 298° |
| 2026-05-08 05:55 | 21.82034 | 89.79211 | 37927 ft | 462 kts | 298° |
| 2026-05-08 05:56 | 21.85603 | 89.73490 | 37923 ft | 462 kts | 298° |
| 2026-05-08 05:56 | 21.89191 | 89.67730 | 37917 ft | 462 kts | 298° |
| 2026-05-08 05:57 | 21.92759 | 89.61998 | 37919 ft | 462 kts | 298° |
| 2026-05-08 05:57 | 21.96339 | 89.56240 | 37924 ft | 461 kts | 298° |
| 2026-05-08 05:58 | 21.99888 | 89.50525 | 37925 ft | 461 kts | 298° |
| 2026-05-08 05:58 | 22.03474 | 89.44746 | 37917 ft | 462 kts | 298° |
| 2026-05-08 05:59 | 22.07037 | 89.38996 | 37927 ft | 463 kts | 298° |
| 2026-05-08 05:59 | 22.10594 | 89.33252 | 37918 ft | 462 kts | 298° |
| 2026-05-08 06:00 | 22.14172 | 89.27467 | 37917 ft | 462 kts | 298° |
| 2026-05-08 06:00 | 22.17717 | 89.21728 | 37920 ft | 462 kts | 298° |
| 2026-05-08 06:01 | 22.21292 | 89.15935 | 37915 ft | 463 kts | 298° |
| 2026-05-08 06:01 | 22.24868 | 89.10133 | 37919 ft | 464 kts | 298° |
| 2026-05-08 06:02 | 22.28430 | 89.04350 | 37924 ft | 464 kts | 298° |
| 2026-05-08 06:02 | 22.32085 | 88.98647 | 37909 ft | 465 kts | 300° |
| 2026-05-08 06:03 | 22.35844 | 88.92956 | 37912 ft | 464 kts | 300° |
| 2026-05-08 06:03 | 22.39618 | 88.87277 | 38417 ft | 462 kts | 300° |
| 2026-05-08 06:03 | 22.41465 | 88.84489 | 38774 ft | 460 kts | 300° |
| 2026-05-08 06:04 | 22.43327 | 88.81670 | 39097 ft | 459 kts | 300° |
| 2026-05-08 06:04 | 22.45184 | 88.78862 | 39415 ft | 458 kts | 300° |
| 2026-05-08 06:04 | 22.47043 | 88.76055 | 39710 ft | 458 kts | 300° |
| 2026-05-08 06:04 | 22.48896 | 88.73253 | 40005 ft | 457 kts | 300° |
| 2026-05-08 06:05 | 22.50722 | 88.70489 | 40316 ft | 456 kts | 301° |
| 2026-05-08 06:05 | 22.52567 | 88.67693 | 40594 ft | 455 kts | 301° |
| 2026-05-08 06:05 | 22.54410 | 88.64901 | 40888 ft | 454 kts | 301° |
| 2026-05-08 06:05 | 22.56249 | 88.62114 | 41167 ft | 454 kts | 301° |
| 2026-05-08 06:06 | 22.58063 | 88.59363 | 41430 ft | 454 kts | 301° |
| 2026-05-08 06:06 | 22.59895 | 88.56582 | 41713 ft | 453 kts | 301° |
| 2026-05-08 06:06 | 22.61724 | 88.53805 | 41946 ft | 453 kts | 301° |
| 2026-05-08 06:07 | 22.65389 | 88.48235 | 41906 ft | 455 kts | 301° |
| 2026-05-08 06:07 | 22.69816 | 88.43296 | 41927 ft | 463 kts | 319° |
| 2026-05-08 06:08 | 22.75163 | 88.39404 | 41913 ft | 464 kts | 321° |
| 2026-05-08 06:08 | 22.80548 | 88.35544 | 41916 ft | 463 kts | 321° |
| 2026-05-08 06:09 | 22.85900 | 88.31696 | 41926 ft | 463 kts | 321° |
| 2026-05-08 06:09 | 22.91262 | 88.27839 | 41930 ft | 464 kts | 321° |
| 2026-05-08 06:10 | 22.96649 | 88.23962 | 41934 ft | 464 kts | 320° |
| 2026-05-08 06:10 | 23.02043 | 88.20074 | 41935 ft | 464 kts | 320° |
| 2026-05-08 06:11 | 23.07393 | 88.16215 | 41941 ft | 463 kts | 320° |
| 2026-05-08 06:11 | 23.12740 | 88.12353 | 41935 ft | 464 kts | 320° |
| 2026-05-08 06:12 | 23.18139 | 88.08452 | 41944 ft | 464 kts | 320° |
| 2026-05-08 06:12 | 23.23491 | 88.04580 | 41940 ft | 464 kts | 320° |
| 2026-05-08 06:13 | 23.28878 | 88.00678 | 41943 ft | 464 kts | 320° |
| 2026-05-08 06:13 | 23.34219 | 87.96807 | 41934 ft | 463 kts | 320° |
| 2026-05-08 06:14 | 23.39581 | 87.92916 | 41935 ft | 462 kts | 320° |
| 2026-05-08 06:14 | 23.44913 | 87.89043 | 41941 ft | 462 kts | 320° |
| 2026-05-08 06:15 | 23.50252 | 87.85161 | 41949 ft | 463 kts | 320° |
| 2026-05-08 06:15 | 23.55625 | 87.81251 | 41951 ft | 464 kts | 320° |
| 2026-05-08 06:16 | 23.61004 | 87.77332 | 41950 ft | 464 kts | 320° |
| 2026-05-08 06:16 | 23.66347 | 87.73436 | 41950 ft | 464 kts | 320° |
| 2026-05-08 06:17 | 23.74405 | 87.67552 | 41957 ft | 463 kts | 320° |
| 2026-05-08 06:17 | 23.79719 | 87.63668 | 41952 ft | 461 kts | 319° |
| 2026-05-08 06:18 | 23.85064 | 87.59756 | 41952 ft | 461 kts | 319° |
| 2026-05-08 06:18 | 23.90380 | 87.55862 | 41949 ft | 462 kts | 319° |
| 2026-05-08 06:19 | 23.95735 | 87.51936 | 41951 ft | 462 kts | 319° |
| 2026-05-08 06:19 | 24.01055 | 87.48030 | 41954 ft | 462 kts | 319° |
| 2026-05-08 06:20 | 24.06405 | 87.44099 | 41955 ft | 463 kts | 319° |
| 2026-05-08 06:20 | 24.11751 | 87.40167 | 41954 ft | 464 kts | 319° |
| 2026-05-08 06:21 | 24.17099 | 87.36230 | 41955 ft | 464 kts | 319° |
| 2026-05-08 06:21 | 24.22349 | 87.32187 | 41957 ft | 462 kts | 318° |
| 2026-05-08 06:22 | 24.27613 | 87.28135 | 41958 ft | 462 kts | 317° |
| 2026-05-08 06:22 | 24.32828 | 87.24064 | 41967 ft | 462 kts | 317° |
| 2026-05-08 06:23 | 24.38092 | 87.19980 | 41966 ft | 462 kts | 317° |
| 2026-05-08 06:23 | 24.43299 | 87.15921 | 41952 ft | 461 kts | 317° |
| 2026-05-08 06:24 | 24.48548 | 87.11832 | 41955 ft | 462 kts | 317° |
| 2026-05-08 06:24 | 24.53774 | 87.07753 | 41954 ft | 462 kts | 317° |
| 2026-05-08 06:25 | 24.58992 | 87.03679 | 41961 ft | 462 kts | 317° |
| 2026-05-08 06:25 | 24.64241 | 86.99575 | 41961 ft | 461 kts | 317° |
| 2026-05-08 06:26 | 24.69451 | 86.95497 | 41963 ft | 461 kts | 317° |
| 2026-05-08 06:26 | 24.74683 | 86.91398 | 41962 ft | 462 kts | 317° |
| 2026-05-08 06:27 | 24.79897 | 86.87308 | 41967 ft | 461 kts | 317° |
| 2026-05-08 06:27 | 24.84258 | 86.83885 | 41962 ft | 460 kts | 317° |
| 2026-05-08 06:28 | 24.90319 | 86.79121 | 41965 ft | 460 kts | 317° |
| 2026-05-08 06:28 | 24.94657 | 86.75708 | 41963 ft | 459 kts | 317° |
| 2026-05-08 06:29 | 25.00711 | 86.70941 | 41953 ft | 459 kts | 317° |
| 2026-05-08 06:29 | 25.05033 | 86.67533 | 41952 ft | 458 kts | 317° |
| 2026-05-08 06:30 | 25.10224 | 86.63436 | 41942 ft | 458 kts | 317° |
| 2026-05-08 06:30 | 25.15388 | 86.59357 | 41943 ft | 458 kts | 317° |
| 2026-05-08 06:31 | 25.20544 | 86.55280 | 41945 ft | 457 kts | 317° |
| 2026-05-08 06:31 | 25.25697 | 86.51199 | 41935 ft | 457 kts | 317° |
| 2026-05-08 06:32 | 25.30886 | 86.47088 | 41939 ft | 457 kts | 317° |
| 2026-05-08 06:32 | 25.36021 | 86.43013 | 41939 ft | 457 kts | 317° |
| 2026-05-08 06:33 | 25.41213 | 86.38918 | 41936 ft | 457 kts | 317° |
| 2026-05-08 06:33 | 25.46358 | 86.34848 | 41932 ft | 456 kts | 317° |
| 2026-05-08 06:34 | 25.51531 | 86.30753 | 41934 ft | 456 kts | 317° |
| 2026-05-08 06:34 | 25.56685 | 86.26670 | 41928 ft | 457 kts | 317° |
| 2026-05-08 06:35 | 25.61856 | 86.22554 | 41931 ft | 456 kts | 317° |
| 2026-05-08 06:35 | 25.66966 | 86.18453 | 41929 ft | 456 kts | 317° |
| 2026-05-08 06:36 | 25.72116 | 86.14334 | 41924 ft | 455 kts | 317° |
| 2026-05-08 06:36 | 25.77227 | 86.10231 | 41920 ft | 454 kts | 317° |
| 2026-05-08 06:37 | 25.82354 | 86.06115 | 41919 ft | 454 kts | 317° |
| 2026-05-08 06:37 | 25.87455 | 86.02014 | 41916 ft | 454 kts | 317° |
| 2026-05-08 06:38 | 25.92573 | 85.97897 | 41917 ft | 453 kts | 317° |
| 2026-05-08 06:38 | 25.97653 | 85.93804 | 41923 ft | 453 kts | 317° |
| 2026-05-08 06:39 | 26.02741 | 85.89700 | 41920 ft | 453 kts | 317° |
| 2026-05-08 06:39 | 26.07858 | 85.85570 | 41927 ft | 454 kts | 317° |
| 2026-05-08 06:40 | 26.10401 | 85.83517 | 41779 ft | 446 kts | 316° |
| 2026-05-08 06:40 | 26.12918 | 85.81487 | 40244 ft | 449 kts | 316° |
| 2026-05-08 06:40 | 26.15458 | 85.79420 | 38748 ft | 455 kts | 315° |
| 2026-05-08 06:40 | 26.18041 | 85.77326 | 36983 ft | 461 kts | 315° |
| 2026-05-08 06:41 | 26.20571 | 85.75296 | 36563 ft | 442 kts | 315° |
| 2026-05-08 06:41 | 26.23099 | 85.73247 | 35979 ft | 459 kts | 315° |
| 2026-05-08 06:41 | 26.25717 | 85.71095 | 35316 ft | 471 kts | 315° |
| 2026-05-08 06:41 | 26.28395 | 85.68929 | 34621 ft | 475 kts | 316° |
| 2026-05-08 06:42 | 26.31043 | 85.66802 | 33933 ft | 475 kts | 316° |
| 2026-05-08 06:42 | 26.33709 | 85.64638 | 33285 ft | 472 kts | 316° |
| 2026-05-08 06:42 | 26.36358 | 85.62485 | 32620 ft | 469 kts | 317° |
| 2026-05-08 06:42 | 26.39006 | 85.60348 | 31954 ft | 468 kts | 317° |
| 2026-05-08 06:43 | 26.41641 | 85.58223 | 31304 ft | 466 kts | 318° |
| 2026-05-08 06:43 | 26.44259 | 85.56103 | 30645 ft | 464 kts | 319° |
| 2026-05-08 06:43 | 26.46840 | 85.54009 | 29999 ft | 463 kts | 319° |
| 2026-05-08 06:43 | 26.49438 | 85.51905 | 29315 ft | 460 kts | 320° |
| 2026-05-08 06:44 | 26.52019 | 85.49816 | 28672 ft | 456 kts | 320° |
| 2026-05-08 06:44 | 26.54573 | 85.47744 | 28036 ft | 452 kts | 320° |
| 2026-05-08 06:44 | 26.57108 | 85.45684 | 27417 ft | 447 kts | 320° |
| 2026-05-08 06:44 | 26.59625 | 85.43640 | 26798 ft | 444 kts | 320° |
| 2026-05-08 06:45 | 26.62085 | 85.41642 | 26201 ft | 440 kts | 321° |
| 2026-05-08 06:45 | 26.64563 | 85.39629 | 25584 ft | 437 kts | 321° |
| 2026-05-08 06:45 | 26.67009 | 85.37638 | 24992 ft | 433 kts | 321° |
| 2026-05-08 06:45 | 26.69425 | 85.35671 | 24409 ft | 430 kts | 321° |
| 2026-05-08 06:46 | 26.71835 | 85.33708 | 23821 ft | 426 kts | 321° |
| 2026-05-08 06:46 | 26.74229 | 85.31758 | 23205 ft | 422 kts | 321° |
| 2026-05-08 06:46 | 26.76571 | 85.29863 | 22622 ft | 416 kts | 322° |
| 2026-05-08 06:46 | 26.78923 | 85.28003 | 22074 ft | 410 kts | 322° |
| 2026-05-08 06:47 | 26.81237 | 85.26175 | 21529 ft | 404 kts | 322° |
| 2026-05-08 06:47 | 26.83481 | 85.24380 | 20998 ft | 398 kts | 322° |
| 2026-05-08 06:47 | 26.85720 | 85.22583 | 20481 ft | 392 kts | 322° |
| 2026-05-08 06:47 | 26.87932 | 85.20817 | 19960 ft | 387 kts | 322° |
| 2026-05-08 06:48 | 26.90120 | 85.19073 | 19451 ft | 382 kts | 322° |
| 2026-05-08 06:48 | 26.92277 | 85.17349 | 18944 ft | 378 kts | 322° |
| 2026-05-08 06:48 | 26.94384 | 85.15661 | 18465 ft | 374 kts | 322° |
| 2026-05-08 06:48 | 26.96492 | 85.13974 | 17935 ft | 370 kts | 322° |
| 2026-05-08 06:49 | 26.98570 | 85.12311 | 17454 ft | 364 kts | 322° |
| 2026-05-08 06:49 | 27.00626 | 85.10664 | 16978 ft | 360 kts | 322° |
| 2026-05-08 06:49 | 27.02657 | 85.09100 | 16622 ft | 354 kts | 329° |
| 2026-05-08 06:49 | 27.04923 | 85.08168 | 16532 ft | 341 kts | 348° |
| 2026-05-08 06:50 | 27.07320 | 85.08075 | 16138 ft | 348 kts | 7° |
| 2026-05-08 06:50 | 27.09657 | 85.08825 | 15738 ft | 350 kts | 20° |
| 2026-05-08 06:50 | 27.11891 | 85.09805 | 15338 ft | 347 kts | 20° |
| 2026-05-08 06:50 | 27.14114 | 85.10815 | 14936 ft | 342 kts | 20° |
| 2026-05-08 06:51 | 27.16313 | 85.11811 | 14548 ft | 337 kts | 20° |
| 2026-05-08 06:51 | 27.18489 | 85.12784 | 14077 ft | 335 kts | 20° |
| 2026-05-08 06:51 | 27.20601 | 85.13727 | 13647 ft | 324 kts | 21° |
| 2026-05-08 06:51 | 27.22641 | 85.14643 | 13265 ft | 306 kts | 21° |
| 2026-05-08 06:52 | 27.24573 | 85.15512 | 12920 ft | 291 kts | 21° |
| 2026-05-08 06:52 | 27.26395 | 85.16331 | 12603 ft | 281 kts | 21° |
| 2026-05-08 06:52 | 27.28197 | 85.17141 | 12460 ft | 269 kts | 22° |
| 2026-05-08 06:52 | 27.29894 | 85.17903 | 12343 ft | 266 kts | 22° |
| 2026-05-08 06:53 | 27.31653 | 85.18702 | 11921 ft | 274 kts | 23° |
| 2026-05-08 06:53 | 27.33415 | 85.19532 | 11535 ft | 274 kts | 23° |
| 2026-05-08 06:53 | 27.35162 | 85.20326 | 11170 ft | 273 kts | 22° |
| 2026-05-08 06:53 | 27.36913 | 85.21106 | 10931 ft | 267 kts | 22° |
| 2026-05-08 06:54 | 27.38627 | 85.21875 | 10880 ft | 268 kts | 23° |
| 2026-05-08 06:54 | 27.40374 | 85.22666 | 10752 ft | 270 kts | 23° |
| 2026-05-08 06:54 | 27.42119 | 85.23454 | 10620 ft | 269 kts | 23° |
| 2026-05-08 06:54 | 27.43838 | 85.24228 | 10485 ft | 268 kts | 23° |
| 2026-05-08 06:55 | 27.45563 | 85.25006 | 10378 ft | 263 kts | 23° |
| 2026-05-08 06:55 | 27.47226 | 85.25756 | 10170 ft | 253 kts | 23° |
| 2026-05-08 06:55 | 27.48827 | 85.26480 | 10075 ft | 240 kts | 23° |
| 2026-05-08 06:55 | 27.50327 | 85.27156 | 10110 ft | 224 kts | 23° |
| 2026-05-08 06:56 | 27.51733 | 85.27776 | 10076 ft | 210 kts | 19° |
| 2026-05-08 06:56 | 27.53240 | 85.27763 | 9542 ft | 235 kts | 344° |
| 2026-05-08 06:56 | 27.54758 | 85.27039 | 9055 ft | 238 kts | 329° |
| 2026-05-08 06:56 | 27.56070 | 85.25899 | 8538 ft | 235 kts | 326° |
| 2026-05-08 06:57 | 27.57563 | 85.25560 | 8393 ft | 216 kts | 14° |
| 2026-05-08 06:57 | 27.58802 | 85.26421 | 8059 ft | 223 kts | 54° |
| 2026-05-08 06:57 | 27.59541 | 85.27993 | 7480 ft | 228 kts | 64° |
| 2026-05-08 06:57 | 27.60212 | 85.29616 | 6938 ft | 227 kts | 65° |
| 2026-05-08 06:58 | 27.61079 | 85.31079 | 6353 ft | 223 kts | 51° |
| 2026-05-08 06:58 | 27.62161 | 85.32296 | 5695 ft | 215 kts | 40° |
| 2026-05-08 06:58 | 27.63376 | 85.33125 | 5272 ft | 198 kts | 25° |
| 2026-05-08 06:58 | 27.64581 | 85.33643 | 5055 ft | 172 kts | 21° |
| 2026-05-08 06:59 | 27.65639 | 85.34088 | 4872 ft | 156 kts | 24° |
| 2026-05-08 06:59 | 27.66643 | 85.34544 | 4669 ft | 153 kts | 24° |
| 2026-05-08 06:59 | 27.67593 | 85.34979 | 4459 ft | 146 kts | 23° |
| 2026-05-08 06:59 | 27.68551 | 85.35413 | 4337 ft | 149 kts | 24° |
| 2026-05-08 07:00 | 27.69327 | 85.35766 | 4351 ft | 77 kts | 21° |
| 2026-05-08 07:00 | 27.69759 | 85.35960 | 4358 ft | 60 kts | 22° |
| 2026-05-08 07:00 | 27.70045 | 85.36092 | 4362 ft | 28 kts | 23° |
| 2026-05-08 07:00 | 27.70182 | 85.36104 | 4381 ft | 13 kts | 324° |
| 2026-05-08 07:01 | 27.70181 | 85.36039 | 4380 ft | 7 kts | 230° |
| 2026-05-08 07:01 | 27.70135 | 85.36010 | 4365 ft | 9 kts | 202° |
| 2026-05-08 07:01 | 27.70066 | 85.35979 | 4372 ft | 12 kts | 201° |
| 2026-05-08 07:01 | 27.69983 | 85.35942 | 4364 ft | 8 kts | 201° |
| 2026-05-08 07:02 | 27.69921 | 85.35914 | 4368 ft | 11 kts | 201° |
| 2026-05-08 07:02 | 27.69863 | 85.35884 | 4365 ft | 4 kts | 231° |
| 2026-05-08 07:02 | 27.69860 | 85.35866 | 4354 ft | 2 kts | 260° |
| 2026-05-08 07:02 | 27.69862 | 85.35840 | 4368 ft | 3 kts | 289° |
| 2026-05-08 07:03 | 27.69872 | 85.35814 | 4363 ft | 4 kts | 292° |
| 2026-05-08 07:03 | 27.69881 | 85.35788 | 4356 ft | 0 kts | 292° |